Aérodrome de Cahors-Lalbenque

LFCC · Lot, Occitanie, 法国

使用的METAR站距离机场73 km。
罗盘
风向 的 风向 的 风向 到 风向 060° Aérodrome de Cahors-Lalbenque 13/31
风: 8 kt, 3 beaufort

3 kt

7 kt
改变
0 ft 1.000 2.000 3.000 4.000 5.000
CAVOK
METAR LFBA 200930Z AUTO 06008KT 030V090 CAVOK 16/07 Q1022 NOSIG

METAR Aérodrome de Cahors-Lalbenque - LFCC/ZAO

Aérodrome de Cahors-Lalbenque是,法国中的中型机场。 该机场位于纬度44,35140和经度1,47472。 该机场有2条跑道: 13/31 和 13L/31R. 本场的ICAO机场代码为LFCC。 该机场的IATA代码为ZAO。 机场在Bordeaux FIR中。

该航空气象观测是针对Agen-La Garenne Airport在2024年4月20日 11:30, 当地时间进行的。

机场观察

风向为060°,速度为8 kt。 风向在030°和090°之间变化。

天气为CAVOK。这意味着在5.000 ft或MSA(最低安全高度)以下(以较高者为准)以下没有云。这也意味着没有观测到积雨云或高耸的积云,可见度为10 km 或者更多或更高。此外,不会有雾,降雨或其他重要天气。

温度和风寒是16 °C。 露点为7 °C,相对湿度为55%。 海平面上的气压为1022 hPa (QNH)。

白天

今天,太阳从07:00升起,在20:44降落。 这适用于Aérodrome de Cahors-Lalbenque,世界夏令时可能有所不同。 当地时间与世界标准时间之间的时差为+2 小时。 夏令时目前正在进行中。

公司介绍

在这个机场,你可以找到飞行俱乐部 和 跳伞中心。 这个机场上的公司有Aéroclub du Quercy Cahors 和 Cahors。

体会

到Vliegles.nl去找飞行课程,跳伞和其他飞行体验。 浏览页面,了解Aérodrome de Cahors-Lalbenque附近所有可用的活动。 你也可以使用搜索功能来寻找你所在地附近的特定飞行课程、跳伞或其他飞行体验。

跑道

Id 标题 侧风 逆风 侧风 %
13/31 127°-307° 7 kt 3 kt 92 %
13L/31R 127°-307° 7 kt 3 kt 92 %

逆风成分最大的方向会被突出显示,并用于横风计算。 这并不一定意味着这个方向在使用。

温度 & 天气

温度 16 °C
露点 7 °C
相对湿度 55%
Kp-index 1 (0-9)

白天

日出
07:04
中午
13:56
日落
20:48 (8:53)

小工具

你想在你的网站上有一个关于Aérodrome de Cahors-Lalbenque的当前航空天气(METAR)的小部件吗?

显示HTML代码
报告变更